createdAt,value
2023-02-02T01:25:54.504Z,508.00
2023-02-02T01:26:54.580Z,510.00
2023-02-02T01:27:54.667Z,507.00
2023-02-02T01:28:54.754Z,508.00
2023-02-02T01:29:54.838Z,504.00
2023-02-02T01:30:54.979Z,507.00
2023-02-02T01:31:55.100Z,510.00
2023-02-02T01:32:55.101Z,507.00
2023-02-02T01:33:55.191Z,501.00
2023-02-02T01:34:55.299Z,505.00
2023-02-02T01:35:55.368Z,506.00
2023-02-02T01:36:55.442Z,504.00
2023-02-02T01:37:55.514Z,506.00
2023-02-02T01:45:56.225Z,501.00
2023-02-02T01:46:56.244Z,506.00
2023-02-02T01:47:56.331Z,508.00
2023-02-02T01:48:56.403Z,503.00
2023-02-02T01:49:56.508Z,508.00
2023-02-02T01:50:56.575Z,508.00
2023-02-02T01:51:56.631Z,505.00
2023-02-02T01:52:56.709Z,505.00
2023-02-02T01:53:56.797Z,507.00
2023-02-02T01:54:56.869Z,510.00
2023-02-02T01:55:56.954Z,502.00
2023-02-02T01:56:57.051Z,500.00
2023-02-02T01:57:57.108Z,503.00
2023-02-02T01:58:57.178Z,507.00
2023-02-02T01:59:57.255Z,504.00
2023-02-02T02:00:57.372Z,505.00
2023-02-02T02:01:57.403Z,510.00
2023-02-02T02:02:57.486Z,509.00
2023-02-02T02:03:57.552Z,509.00
2023-02-02T02:04:57.631Z,511.00
2023-02-02T02:05:57.732Z,508.00
2023-02-02T02:06:57.797Z,506.00
2023-02-02T02:07:57.884Z,507.00
2023-02-02T02:08:57.964Z,511.00
2023-02-02T02:09:58.045Z,507.00
2023-02-02T02:10:58.104Z,509.00
2023-02-02T02:11:58.186Z,507.00
2023-02-02T02:12:58.279Z,507.00
2023-02-02T02:13:58.367Z,505.00
2023-02-02T02:14:58.455Z,506.00
2023-02-02T02:15:58.509Z,509.00
2023-02-02T02:16:58.593Z,507.00
2023-02-02T02:17:58.656Z,507.00
2023-02-02T02:18:58.733Z,504.00
2023-02-02T02:19:58.813Z,505.00
2023-02-02T02:20:58.895Z,506.00
2023-02-02T02:21:58.971Z,506.00
2023-02-02T02:22:59.018Z,507.00
2023-02-02T02:23:59.077Z,500.00
2023-02-02T02:24:59.169Z,506.00
2023-02-02T02:25:59.209Z,505.00
2023-02-02T02:26:59.303Z,505.00
2023-02-02T02:28:00.884Z,511.00
2023-02-02T02:28:59.454Z,510.00
2023-02-02T02:29:59.554Z,508.00
2023-02-02T02:30:59.700Z,507.00
2023-02-02T02:31:59.683Z,508.00
2023-02-02T02:32:59.769Z,510.00
2023-02-02T02:33:59.862Z,505.00
2023-02-02T02:34:59.928Z,504.00
2023-02-02T02:35:59.989Z,505.00
2023-02-02T02:37:00.035Z,507.00
2023-02-02T02:38:00.129Z,508.00
2023-02-02T02:39:00.179Z,505.00
2023-02-02T02:40:00.263Z,502.00
2023-02-02T02:41:00.339Z,506.00
2023-02-02T02:42:00.385Z,506.00
2023-02-02T02:43:00.445Z,506.00
2023-02-02T02:44:00.553Z,508.00
2023-02-02T02:45:00.599Z,510.00
2023-02-02T02:46:00.723Z,505.00
2023-02-02T02:47:00.764Z,508.00
2023-02-02T02:48:00.877Z,508.00
2023-02-02T02:49:00.932Z,505.00
2023-02-02T02:50:00.998Z,506.00
2023-02-02T02:51:01.098Z,504.00
2023-02-02T02:52:01.314Z,512.00
2023-02-02T02:53:01.258Z,507.00
2023-02-02T02:54:01.349Z,501.00
2023-02-02T02:55:01.434Z,516.00
2023-02-02T02:56:01.539Z,511.00
2023-02-02T02:57:01.632Z,514.00
2023-02-02T02:58:01.741Z,508.00
2023-02-02T02:59:01.829Z,512.00
2023-02-02T03:00:01.916Z,508.00
2023-02-02T03:30:04.500Z,509.00
2023-02-02T03:31:04.646Z,509.00
2023-02-02T03:32:04.656Z,512.00
2023-02-02T03:33:04.752Z,506.00
2023-02-02T03:34:04.862Z,509.00
2023-02-02T03:35:04.924Z,506.00
2023-02-02T03:36:05.005Z,513.00
2023-02-02T03:37:05.089Z,513.00
2023-02-02T03:38:05.173Z,509.00
2023-02-02T03:39:05.271Z,509.00
2023-02-02T03:40:05.349Z,510.00
2023-02-02T03:41:05.437Z,502.00
2023-02-02T03:42:05.519Z,509.00
2023-02-02T03:43:05.610Z,504.00
2023-02-02T03:44:05.683Z,506.00
2023-02-02T03:45:05.774Z,508.00
2023-02-02T03:46:05.942Z,511.00
2023-02-02T03:47:05.959Z,511.00
2023-02-02T03:48:06.058Z,511.00
2023-02-02T03:49:06.106Z,506.00
2023-02-02T03:50:06.185Z,510.00
2023-02-02T03:51:06.263Z,506.00
2023-02-02T03:52:06.335Z,511.00
2023-02-02T03:53:06.407Z,508.00
2023-02-02T03:54:06.493Z,514.00
2023-02-02T03:55:06.564Z,504.00
2023-02-02T03:56:06.641Z,509.00
2023-02-02T03:57:06.719Z,512.00
2023-02-02T03:58:06.782Z,507.00
2023-02-02T03:59:06.850Z,507.00
2023-02-02T04:00:06.894Z,508.00
2023-02-02T04:01:06.969Z,510.00
2023-02-02T04:02:07.033Z,510.00
2023-02-02T04:03:07.264Z,509.00
2023-02-02T04:04:07.181Z,514.00
2023-02-02T04:05:07.275Z,513.00
2023-02-02T04:06:07.345Z,512.00
2023-02-02T04:07:07.443Z,511.00
2023-02-02T04:08:07.507Z,512.00
2023-02-02T04:09:07.563Z,514.00
2023-02-02T04:10:07.635Z,513.00
2023-02-02T04:11:07.701Z,514.00
2023-02-02T04:12:07.760Z,517.00
2023-02-02T04:13:07.840Z,515.00
2023-02-02T04:14:07.908Z,520.00
2023-02-02T04:15:07.992Z,514.00
2023-02-02T04:16:08.117Z,509.00
2023-02-02T04:17:08.156Z,518.00
2023-02-02T04:18:08.230Z,519.00
2023-02-02T04:19:08.313Z,517.00
2023-02-02T04:20:08.384Z,517.00
2023-02-02T04:21:08.468Z,513.00
2023-02-02T04:22:08.544Z,518.00
2023-02-02T04:23:08.619Z,515.00
2023-02-02T04:24:08.700Z,518.00
2023-02-02T04:25:08.768Z,521.00
2023-02-02T04:26:08.836Z,512.00
2023-02-02T04:27:08.913Z,518.00
2023-02-02T04:28:08.963Z,526.00
2023-02-02T04:29:09.028Z,515.00
2023-02-02T04:30:09.103Z,522.00
2023-02-02T04:31:09.252Z,518.00
2023-02-02T04:32:09.232Z,515.00
2023-02-02T04:33:09.301Z,517.00
2023-02-02T04:34:09.377Z,522.00
2023-02-02T04:35:09.452Z,522.00
2023-02-02T04:36:09.550Z,522.00
2023-02-02T04:37:09.616Z,518.00
2023-02-02T04:38:10.120Z,516.00
2023-02-02T04:39:09.728Z,522.00
2023-02-02T04:40:09.794Z,521.00
2023-02-02T04:41:09.874Z,523.00
2023-02-02T04:42:09.929Z,522.00
2023-02-02T04:43:09.979Z,517.00
2023-02-02T04:44:10.143Z,518.00
2023-02-02T04:45:10.116Z,517.00
2023-02-02T04:46:10.243Z,520.00
2023-02-02T04:47:10.255Z,523.00
2023-02-02T04:48:10.319Z,524.00
2023-02-02T04:49:10.380Z,522.00
2023-02-02T04:50:10.454Z,517.00
2023-02-02T04:51:10.509Z,522.00
2023-02-02T04:52:10.587Z,521.00
2023-02-02T04:53:10.644Z,518.00
2023-02-02T04:54:10.721Z,521.00
2023-02-02T04:55:10.773Z,523.00
2023-02-02T04:56:10.836Z,520.00
2023-02-02T04:57:10.890Z,518.00
2023-02-02T04:58:10.961Z,521.00
2023-02-02T04:59:11.016Z,514.00
2023-02-02T05:00:11.083Z,521.00
2023-02-02T05:01:11.194Z,518.00
2023-02-02T05:02:11.194Z,517.00
2023-02-02T05:03:11.260Z,518.00
2023-02-02T05:04:11.371Z,518.00
2023-02-02T05:05:11.385Z,523.00
2023-02-02T05:06:11.436Z,521.00
2023-02-02T05:07:11.493Z,523.00
2023-02-02T05:08:11.575Z,515.00
2023-02-02T05:09:11.602Z,518.00
2023-02-02T05:10:11.660Z,518.00
2023-02-02T05:11:11.710Z,521.00
2023-02-02T05:12:11.776Z,514.00
2023-02-02T05:13:11.807Z,520.00
2023-02-02T05:14:11.863Z,521.00
2023-02-02T05:15:11.920Z,521.00
2023-02-02T05:16:12.015Z,516.00
2023-02-02T05:17:12.008Z,518.00
2023-02-02T05:18:12.057Z,519.00
2023-02-02T05:19:12.152Z,519.00
2023-02-02T05:20:12.147Z,516.00
2023-02-02T05:21:12.193Z,514.00
2023-02-02T05:22:12.253Z,516.00
2023-02-02T05:23:12.287Z,518.00
2023-02-02T05:24:12.346Z,514.00
2023-02-02T05:25:12.406Z,522.00
2023-02-02T05:26:12.480Z,516.00
2023-02-02T05:27:12.510Z,515.00
2023-02-02T05:28:12.562Z,513.00
2023-02-02T05:29:12.630Z,521.00
2023-02-02T05:30:12.671Z,522.00
2023-02-02T05:31:12.781Z,514.00
2023-02-02T05:32:12.768Z,514.00
2023-02-02T05:33:12.823Z,516.00
2023-02-02T05:34:12.882Z,516.00
2023-02-02T05:35:12.943Z,514.00
2023-02-02T05:36:13.016Z,511.00
2023-02-02T05:37:13.062Z,518.00
2023-02-02T05:38:13.112Z,517.00
2023-02-02T05:39:13.156Z,513.00
2023-02-02T05:40:13.208Z,518.00
2023-02-02T05:41:13.283Z,516.00
2023-02-02T05:42:13.316Z,515.00
2023-02-02T05:43:13.359Z,519.00
2023-02-02T05:44:13.409Z,518.00
2023-02-02T05:45:13.485Z,515.00
2023-02-02T05:46:13.578Z,515.00
2023-02-02T05:47:13.563Z,513.00
2023-02-02T05:48:13.615Z,515.00
2023-02-02T05:49:13.665Z,517.00
2023-02-02T05:50:13.759Z,510.00
2023-02-02T05:51:13.759Z,519.00
2023-02-02T05:52:13.832Z,513.00
2023-02-02T05:53:13.886Z,514.00
2023-02-02T05:54:13.932Z,512.00
2023-02-02T05:55:14.007Z,518.00
2023-02-02T05:56:14.050Z,516.00
2023-02-02T05:57:14.111Z,519.00
2023-02-02T05:58:14.162Z,513.00
2023-02-02T05:59:14.192Z,510.00
2023-02-02T06:00:14.239Z,518.00
2023-02-02T06:01:14.298Z,512.00
2023-02-02T06:02:14.367Z,514.00
2023-02-02T06:03:14.494Z,508.00
2023-02-02T06:04:14.567Z,515.00
2023-02-02T06:05:14.514Z,519.00
2023-02-02T06:06:14.568Z,510.00
2023-02-02T06:07:14.611Z,518.00
2023-02-02T06:08:14.668Z,511.00
2023-02-02T06:09:14.717Z,515.00
2023-02-02T06:10:14.771Z,512.00
2023-02-02T06:11:14.821Z,512.00
2023-02-02T06:12:14.861Z,513.00
2023-02-02T06:13:14.927Z,514.00
2023-02-02T06:14:14.985Z,513.00
2023-02-02T06:15:15.017Z,512.00
2023-02-02T06:16:15.156Z,516.00
2023-02-02T06:17:15.118Z,511.00
2023-02-02T06:18:15.148Z,513.00
2023-02-02T06:19:15.199Z,508.00
2023-02-02T06:20:15.208Z,510.00
2023-02-02T06:21:15.270Z,511.00
2023-02-02T06:22:15.317Z,513.00
2023-02-02T06:23:15.347Z,524.00
2023-02-02T06:24:15.395Z,526.00
2023-02-02T06:25:15.448Z,523.00
2023-02-02T06:26:15.451Z,524.00
2023-02-02T06:27:15.502Z,526.00
2023-02-02T06:28:15.529Z,535.00
2023-02-02T06:29:15.575Z,549.00
2023-02-02T06:30:15.635Z,544.00
2023-02-02T06:31:15.743Z,536.00
2023-02-02T06:32:15.688Z,539.00
2023-02-02T06:33:15.707Z,542.00
2023-02-02T06:34:15.765Z,545.00
2023-02-02T06:35:15.787Z,545.00
2023-02-02T06:36:15.845Z,549.00
2023-02-02T06:37:15.864Z,548.00
2023-02-02T06:38:15.902Z,551.00
2023-02-02T06:39:15.940Z,550.00
2023-02-02T06:40:15.973Z,546.00
2023-02-02T06:41:16.017Z,549.00
2023-02-02T06:42:21.797Z,550.00
2023-02-02T06:44:16.066Z,550.00
2023-02-02T06:45:16.080Z,549.00
2023-02-02T06:46:16.129Z,547.00
2023-02-02T06:47:16.109Z,549.00
2023-02-02T06:48:16.130Z,553.00
2023-02-02T06:49:16.142Z,550.00
2023-02-02T06:50:16.174Z,553.00
2023-02-02T06:51:16.166Z,551.00
2023-02-02T06:52:16.222Z,552.00
2023-02-02T06:53:16.197Z,549.00
2023-02-02T06:54:16.229Z,552.00
2023-02-02T06:55:16.225Z,552.00
2023-02-02T06:56:16.250Z,547.00
2023-02-02T06:57:16.254Z,554.00
2023-02-02T06:58:16.272Z,552.00
2023-02-02T06:59:16.303Z,546.00
2023-02-02T07:00:19.057Z,553.00
2023-02-02T07:01:16.348Z,551.00
2023-02-02T07:02:16.374Z,552.00
2023-02-02T07:03:16.343Z,551.00
2023-02-02T07:04:16.358Z,548.00
2023-02-02T07:05:16.376Z,546.00
2023-02-02T07:06:16.401Z,545.00
2023-02-02T07:07:16.399Z,550.00
2023-02-02T07:08:17.284Z,554.00
2023-02-02T07:09:16.435Z,549.00
2023-02-02T07:11:13.004Z,552.00
2023-02-02T07:12:16.474Z,553.00
2023-02-02T07:13:16.505Z,549.00
2023-02-02T07:14:16.518Z,552.00
2023-02-02T07:15:16.602Z,552.00
2023-02-02T07:16:16.595Z,550.00
2023-02-02T07:17:16.635Z,549.00
2023-02-02T07:18:16.569Z,552.00
2023-02-02T07:19:16.557Z,548.00
2023-02-02T07:20:16.560Z,544.00
2023-02-02T07:21:16.571Z,551.00
2023-02-02T07:22:16.582Z,545.00
2023-02-02T07:23:16.604Z,553.00
2023-02-02T07:24:16.612Z,549.00
2023-02-02T07:25:16.657Z,544.00
2023-02-02T07:26:16.635Z,553.00
2023-02-02T07:27:16.673Z,533.00
2023-02-02T07:28:16.661Z,547.00
2023-02-02T07:29:16.679Z,555.00
2023-02-02T07:30:16.706Z,564.00
2023-02-02T07:31:16.826Z,567.00
2023-02-02T07:32:16.711Z,578.00
2023-02-02T07:33:16.707Z,579.00
2023-02-02T07:34:16.716Z,589.00
2023-02-02T07:35:16.718Z,602.00
2023-02-02T07:36:16.732Z,605.00
2023-02-02T07:37:16.806Z,615.00
2023-02-02T07:38:16.895Z,613.00
2023-02-02T07:39:16.958Z,628.00
2023-02-02T07:40:17.028Z,630.00
2023-02-02T07:41:17.104Z,638.00
2023-02-02T07:42:17.169Z,639.00
2023-02-02T07:43:17.229Z,650.00
2023-02-02T07:44:17.286Z,656.00
2023-02-02T07:45:35.929Z,656.00
2023-02-02T07:47:17.376Z,659.00
2023-02-02T07:48:17.353Z,667.00
2023-02-02T07:49:17.328Z,698.00
2023-02-02T07:51:17.327Z,766.00
2023-02-02T08:53:19.303Z,719.00
2023-02-02T08:54:19.311Z,741.00
2023-02-02T08:55:19.372Z,769.00
2023-02-02T10:51:24.517Z,703.00
2023-02-02T10:52:24.528Z,685.00
2023-02-02T10:53:24.589Z,699.00
2023-02-02T10:54:24.654Z,692.00
2023-02-02T10:55:24.716Z,683.00
2023-02-02T10:56:24.798Z,689.00
2023-02-02T10:57:24.843Z,676.00
2023-02-02T11:04:25.157Z,663.00
2023-02-02T11:05:25.193Z,664.00
2023-02-02T11:06:25.247Z,671.00
2023-02-02T11:07:25.256Z,665.00
2023-02-02T11:08:25.325Z,660.00
2023-02-02T11:09:25.373Z,661.00
2023-02-02T11:10:25.623Z,659.00
2023-02-02T11:11:25.457Z,663.00
2023-02-02T11:12:25.448Z,664.00
2023-02-02T11:13:25.464Z,663.00
2023-02-02T11:14:25.473Z,661.00
2023-02-02T11:15:25.504Z,666.00
2023-02-02T11:16:28.440Z,672.00
2023-02-02T11:18:25.563Z,673.00
2023-02-02T11:19:25.551Z,679.00
2023-02-02T11:20:25.892Z,690.00
2023-02-02T11:21:25.545Z,712.00
2023-02-02T11:22:25.631Z,721.00
2023-02-02T11:23:25.557Z,731.00
2023-02-02T11:24:25.564Z,743.00
2023-02-02T11:25:25.556Z,742.00
2023-02-02T11:26:25.653Z,769.00
2023-02-02T11:34:25.849Z,807.00
2023-02-02T11:47:26.030Z,906.00
2023-02-02T11:48:26.037Z,910.00
2023-02-02T11:49:26.026Z,923.00
2023-02-02T11:50:26.295Z,926.00
2023-02-02T11:52:26.960Z,921.00
2023-02-02T11:54:26.042Z,906.00
2023-02-02T11:55:26.070Z,922.00
2023-02-02T11:56:26.072Z,921.00
2023-02-02T11:57:26.065Z,929.00
2023-02-02T11:58:26.090Z,936.00
2023-02-02T11:59:26.115Z,961.00
2023-02-02T12:00:26.493Z,969.00
2023-02-02T12:02:26.251Z,964.00
2023-02-02T12:03:26.224Z,961.00
2023-02-02T12:04:26.356Z,992.00
2023-02-02T12:05:26.272Z,979.00
2023-02-02T12:06:26.279Z,965.00
2023-02-02T13:58:32.227Z,674.00
2023-02-02T14:07:32.804Z,663.00
2023-02-02T14:17:33.394Z,654.00
2023-02-02T14:21:33.682Z,655.00
2023-02-02T14:22:33.741Z,646.00
2023-02-02T14:23:33.795Z,650.00
2023-02-02T14:24:33.834Z,647.00
2023-02-02T14:25:33.941Z,649.00
2023-02-02T18:45:43.390Z,564.00
2023-02-02T18:46:43.479Z,570.00
2023-02-02T18:47:43.475Z,568.00
2023-02-02T18:48:43.505Z,559.00
2023-02-02T18:49:43.535Z,565.00
2023-02-02T18:50:43.582Z,562.00
2023-02-02T18:51:43.639Z,567.00
2023-02-02T18:52:43.662Z,565.00
2023-02-02T18:53:43.711Z,564.00
2023-02-02T18:54:45.906Z,566.00
2023-02-02T18:55:43.776Z,564.00
2023-02-02T18:56:43.799Z,565.00
2023-02-02T18:57:43.817Z,567.00
2023-02-02T18:58:43.829Z,562.00
2023-02-02T18:59:43.840Z,562.00
2023-02-02T19:00:43.860Z,563.00
2023-02-02T19:01:43.886Z,566.00
2023-02-02T19:02:43.877Z,564.00
2023-02-02T19:03:43.936Z,564.00
2023-02-02T19:04:43.904Z,562.00
2023-02-02T19:05:43.932Z,561.00
2023-02-02T19:06:43.939Z,561.00
2023-02-02T19:07:43.951Z,565.00
2023-02-02T19:08:43.969Z,566.00
2023-02-02T19:09:43.999Z,554.00
2023-02-02T19:10:44.002Z,561.00
2023-02-02T19:11:44.044Z,560.00
2023-02-02T19:26:44.267Z,556.00
2023-02-02T19:27:44.283Z,552.00
2023-02-02T19:28:44.269Z,556.00
2023-02-02T19:29:44.276Z,552.00
2023-02-02T19:30:44.362Z,552.00
2023-02-02T19:31:44.345Z,561.00
2023-02-02T19:32:44.318Z,555.00
2023-02-02T19:33:44.340Z,556.00
2023-02-02T19:34:44.346Z,553.00
2023-02-02T19:35:44.363Z,554.00
2023-02-02T19:36:44.360Z,550.00
2023-02-02T19:37:44.377Z,549.00
2023-02-02T19:38:44.381Z,554.00
2023-02-02T19:39:44.384Z,555.00
2023-02-02T19:40:44.429Z,551.00
2023-02-02T19:41:44.418Z,552.00
2023-02-02T19:42:44.485Z,547.00
2023-02-02T19:43:44.445Z,555.00
2023-02-02T19:44:44.470Z,551.00
2023-02-02T19:45:44.486Z,549.00
2023-02-02T19:46:45.113Z,553.00
2023-02-02T19:47:44.525Z,557.00
2023-02-02T19:48:44.523Z,553.00
2023-02-02T19:49:44.551Z,556.00
2023-02-02T19:50:44.566Z,551.00
2023-02-02T19:51:44.591Z,554.00
2023-02-02T19:52:44.591Z,551.00
2023-02-02T19:53:44.615Z,547.00
2023-02-02T19:54:44.633Z,547.00
2023-02-02T19:55:44.652Z,554.00
2023-02-02T19:56:44.670Z,547.00
2023-02-02T19:57:44.706Z,547.00
2023-02-02T19:58:44.752Z,546.00
2023-02-02T19:59:44.800Z,550.00
2023-02-02T20:00:45.077Z,550.00
2023-02-02T20:01:44.921Z,551.00
2023-02-02T20:02:45.025Z,551.00
2023-02-02T20:03:45.029Z,546.00
2023-02-02T20:04:45.072Z,543.00
2023-02-02T20:05:45.127Z,545.00
2023-02-02T20:06:57.948Z,547.00
2023-02-02T20:07:46.199Z,547.00
2023-02-02T20:08:45.206Z,547.00
2023-02-02T20:09:45.226Z,544.00
2023-02-02T20:10:45.234Z,547.00
2023-02-02T20:11:45.256Z,548.00
2023-02-02T20:12:45.275Z,548.00
2023-02-02T20:13:45.297Z,542.00
2023-02-02T20:14:45.310Z,546.00
2023-02-02T20:15:45.367Z,545.00
2023-02-02T20:16:45.398Z,550.00
2023-02-02T20:17:45.376Z,548.00
2023-02-02T20:18:45.403Z,549.00
2023-02-02T20:19:45.391Z,543.00
2023-02-02T20:20:45.428Z,543.00
2023-02-02T20:21:45.428Z,541.00
2023-02-02T20:22:45.443Z,544.00
2023-02-02T20:23:45.472Z,548.00
2023-02-02T20:24:45.475Z,539.00
2023-02-02T20:25:45.622Z,543.00
2023-02-02T20:26:45.565Z,548.00
2023-02-02T20:27:45.581Z,542.00
2023-02-02T20:28:45.633Z,541.00
2023-02-02T20:29:45.679Z,542.00
2023-02-02T20:30:45.757Z,543.00
2023-02-02T20:31:46.630Z,544.00
2023-02-02T20:32:45.836Z,544.00
2023-02-02T20:33:45.907Z,544.00
2023-02-02T20:34:45.963Z,540.00
2023-02-02T20:35:46.001Z,541.00
2023-02-02T20:36:46.052Z,540.00
2023-02-02T20:37:46.090Z,543.00
2023-02-02T20:38:46.135Z,538.00
2023-02-02T20:39:46.183Z,545.00
2023-02-02T20:40:46.245Z,538.00
2023-02-02T20:41:46.290Z,538.00
2023-02-02T20:42:46.349Z,541.00
2023-02-02T20:43:46.401Z,537.00
2023-02-02T20:44:46.465Z,539.00
2023-02-02T20:45:46.587Z,543.00
2023-02-02T20:46:46.572Z,542.00
2023-02-02T20:47:46.616Z,535.00
2023-02-02T20:48:46.666Z,536.00
2023-02-02T20:49:46.737Z,539.00
2023-02-02T20:50:46.853Z,532.00
2023-02-02T20:51:46.836Z,537.00
2023-02-02T20:52:46.895Z,537.00
2023-02-02T20:53:46.927Z,537.00
2023-02-02T20:54:46.980Z,535.00
2023-02-02T20:55:47.031Z,540.00
2023-02-02T20:56:47.093Z,535.00
2023-02-02T20:57:47.152Z,531.00
2023-02-02T20:58:47.206Z,537.00
2023-02-02T20:59:47.274Z,535.00
2023-02-02T21:00:47.337Z,531.00
2023-02-02T21:01:47.383Z,539.00
2023-02-02T21:02:47.437Z,532.00
2023-02-02T21:03:47.499Z,539.00
2023-02-02T21:04:47.556Z,531.00
2023-02-02T21:05:47.603Z,538.00
2023-02-02T21:06:47.664Z,538.00
2023-02-02T21:07:47.711Z,532.00
2023-02-02T21:08:47.764Z,531.00
2023-02-02T21:09:47.830Z,534.00
2023-02-02T21:10:47.893Z,532.00
2023-02-02T21:11:47.958Z,536.00
2023-02-02T21:12:51.490Z,534.00
2023-02-02T21:13:48.116Z,535.00
2023-02-02T21:14:48.036Z,532.00
2023-02-02T21:15:48.040Z,535.00
2023-02-02T21:16:48.090Z,530.00
2023-02-02T21:17:48.069Z,533.00
2023-02-02T21:18:48.091Z,533.00
2023-02-02T21:19:48.106Z,526.00
2023-02-02T21:20:48.138Z,527.00
2023-02-02T21:21:48.152Z,529.00
2023-02-02T21:22:48.157Z,530.00
2023-02-02T21:23:48.158Z,529.00
2023-02-02T21:24:48.226Z,530.00
2023-02-02T21:25:48.217Z,527.00
2023-02-02T21:26:51.315Z,533.00
2023-02-02T21:27:48.215Z,534.00
2023-02-02T21:28:48.228Z,532.00
2023-02-02T21:29:48.241Z,529.00
2023-02-02T21:30:48.325Z,527.00
2023-02-02T21:31:48.368Z,527.00
2023-02-02T21:32:48.285Z,527.00
2023-02-02T21:33:48.319Z,533.00
2023-02-02T21:34:48.321Z,525.00
2023-02-02T21:35:48.330Z,528.00
2023-02-02T21:36:48.353Z,529.00
2023-02-02T21:37:48.375Z,530.00
2023-02-02T21:38:48.385Z,533.00
2023-02-02T21:39:48.648Z,527.00
2023-02-02T21:40:48.458Z,528.00
2023-02-02T21:41:48.446Z,524.00
2023-02-02T21:42:48.467Z,526.00
2023-02-02T21:43:48.464Z,522.00
2023-02-02T21:44:48.485Z,527.00
2023-02-02T22:13:49.472Z,516.00
2023-02-02T22:14:49.527Z,524.00
2023-02-02T22:15:49.628Z,520.00
2023-02-02T22:16:49.635Z,518.00
2023-02-02T22:17:49.697Z,519.00
2023-02-02T22:18:49.843Z,517.00
2023-02-02T22:19:49.781Z,515.00
2023-02-02T22:20:49.850Z,520.00
2023-02-02T22:21:49.896Z,519.00
2023-02-02T22:22:49.945Z,520.00
2023-02-02T22:23:49.993Z,515.00
2023-02-02T22:24:50.037Z,518.00
2023-02-02T22:25:50.115Z,516.00
2023-02-02T22:26:50.146Z,516.00
2023-02-02T22:27:50.240Z,519.00
2023-02-02T22:28:50.258Z,517.00
2023-02-02T22:29:50.320Z,526.00
2023-02-02T22:30:50.545Z,514.00
2023-02-02T22:31:50.525Z,512.00
2023-02-02T22:32:50.522Z,515.00
2023-02-02T22:33:50.581Z,511.00
2023-02-02T22:34:50.631Z,514.00
2023-02-02T22:35:50.680Z,514.00
2023-02-02T23:20:53.424Z,504.00
2023-02-02T23:21:53.465Z,505.00
2023-02-02T23:22:53.550Z,506.00
2023-02-02T23:23:53.613Z,508.00
2023-02-02T23:24:53.648Z,510.00
2023-02-02T23:25:53.708Z,502.00
2023-02-02T23:26:53.777Z,503.00
2023-02-02T23:27:53.858Z,501.00
2023-02-02T23:28:53.900Z,505.00
2023-02-02T23:29:53.955Z,508.00
2023-02-02T23:30:54.132Z,506.00
2023-02-02T23:31:54.124Z,502.00
2023-02-02T23:32:54.115Z,504.00
2023-02-02T23:33:54.173Z,508.00
2023-02-02T23:34:54.226Z,502.00
2023-02-02T23:35:54.297Z,509.00
2023-02-02T23:36:54.345Z,505.00
2023-02-02T23:37:54.416Z,501.00
2023-02-02T23:38:54.505Z,505.00
2023-02-02T23:39:54.529Z,500.00
2023-02-02T23:40:54.590Z,507.00
2023-02-02T23:41:54.659Z,510.00
2023-02-02T23:42:54.726Z,510.00
2023-02-02T23:43:54.799Z,511.00
2023-02-02T23:44:54.859Z,510.00
2023-02-02T23:45:54.929Z,509.00
2023-02-02T23:46:55.074Z,505.00
2023-02-02T23:47:55.062Z,506.00
2023-02-02T23:48:55.098Z,505.00
2023-02-02T23:49:55.193Z,509.00
2023-02-02T23:50:55.250Z,509.00
2023-02-02T23:51:55.319Z,506.00
2023-02-02T23:52:55.392Z,503.00
2023-02-02T23:53:55.467Z,503.00
2023-02-02T23:54:55.520Z,505.00
2023-02-02T23:55:55.591Z,507.00
2023-02-02T23:56:55.647Z,508.00
2023-02-02T23:57:55.698Z,510.00
2023-02-02T23:58:55.779Z,503.00
2023-02-02T23:59:55.852Z,507.00
